sensor_id;sensor_type;location;lat;lon;timestamp;pressure;altitude;pressure_sealevel;temperature;humidity
2875;BME280;1445;52.600;13.328;2023-04-26T00:02:04;100691.88;;;4.35;100.00
2875;BME280;1445;52.600;13.328;2023-04-26T00:04:30;100691.88;;;4.35;100.00
2875;BME280;1445;52.600;13.328;2023-04-26T00:06:55;100693.25;;;4.32;100.00
2875;BME280;1445;52.600;13.328;2023-04-26T00:09:21;100688.00;;;4.25;100.00
2875;BME280;1445;52.600;13.328;2023-04-26T00:11:46;100688.00;;;4.25;100.00
2875;BME280;1445;52.600;13.328;2023-04-26T00:14:12;100702.78;;;4.29;100.00
2875;BME280;1445;52.600;13.328;2023-04-26T00:16:37;100691.03;;;4.29;100.00
2875;BME280;1445;52.600;13.328;2023-04-26T00:19:03;100700.53;;;4.21;100.00
2875;BME280;1445;52.600;13.328;2023-04-26T00:21:29;100701.28;;;4.17;100.00
2875;BME280;1445;52.600;13.328;2023-04-26T00:23:54;100698.31;;;4.18;100.00
2875;BME280;1445;52.600;13.328;2023-04-26T00:26:20;100693.38;;;4.15;100.00
2875;BME280;1445;52.600;13.328;2023-04-26T00:28:46;100696.88;;;4.11;100.00
2875;BME280;1445;52.600;13.328;2023-04-26T00:31:15;100694.69;;;4.07;100.00
2875;BME280;1445;52.600;13.328;2023-04-26T00:33:41;100693.31;;;4.10;100.00
2875;BME280;1445;52.600;13.328;2023-04-26T00:36:07;100698.97;;;4.03;100.00
2875;BME280;1445;52.600;13.328;2023-04-26T00:38:32;100700.66;;;4.04;100.00
2875;BME280;1445;52.600;13.328;2023-04-26T00:40:57;100706.56;;;3.96;100.00
2875;BME280;1445;52.600;13.328;2023-04-26T00:43:23;100707.03;;;3.88;100.00
2875;BME280;1445;52.600;13.328;2023-04-26T00:45:48;100702.16;;;3.90;100.00
2875;BME280;1445;52.600;13.328;2023-04-26T00:48:14;100706.22;;;3.88;100.00
2875;BME280;1445;52.600;13.328;2023-04-26T00:50:40;100702.41;;;3.89;100.00
2875;BME280;1445;52.600;13.328;2023-04-26T00:53:07;100705.34;;;3.82;100.00
2875;BME280;1445;52.600;13.328;2023-04-26T00:55:33;100702.28;;;3.78;100.00
2875;BME280;1445;52.600;13.328;2023-04-26T00:57:59;100703.38;;;3.77;100.00
2875;BME280;1445;52.600;13.328;2023-04-26T01:00:24;100703.97;;;3.79;100.00
2875;BME280;1445;52.600;13.328;2023-04-26T01:02:50;100703.66;;;3.76;100.00
2875;BME280;1445;52.600;13.328;2023-04-26T01:05:16;100704.41;;;3.71;100.00
2875;BME280;1445;52.600;13.328;2023-04-26T01:07:42;100716.09;;;3.67;100.00
2875;BME280;1445;52.600;13.328;2023-04-26T01:10:08;100709.25;;;3.64;100.00
2875;BME280;1445;52.600;13.328;2023-04-26T01:12:34;100727.47;;;3.58;100.00
2875;BME280;1445;52.600;13.328;2023-04-26T01:15:00;100714.16;;;3.62;100.00
2875;BME280;1445;52.600;13.328;2023-04-26T01:17:26;100715.75;;;3.58;100.00
2875;BME280;1445;52.600;13.328;2023-04-26T01:19:52;100730.19;;;3.58;100.00
2875;BME280;1445;52.600;13.328;2023-04-26T01:22:17;100730.69;;;3.55;100.00
2875;BME280;1445;52.600;13.328;2023-04-26T01:24:49;100729.59;;;3.56;100.00
2875;BME280;1445;52.600;13.328;2023-04-26T01:27:15;100730.31;;;3.47;100.00
2875;BME280;1445;52.600;13.328;2023-04-26T01:29:41;100720.31;;;3.52;100.00
2875;BME280;1445;52.600;13.328;2023-04-26T01:32:07;100727.34;;;3.48;100.00
2875;BME280;1445;52.600;13.328;2023-04-26T01:34:32;100730.81;;;3.44;100.00
2875;BME280;1445;52.600;13.328;2023-04-26T01:36:59;100751.06;;;3.48;100.00
2875;BME280;1445;52.600;13.328;2023-04-26T01:39:24;100737.94;;;3.45;100.00
2875;BME280;1445;52.600;13.328;2023-04-26T01:41:50;100745.53;;;3.43;100.00
2875;BME280;1445;52.600;13.328;2023-04-26T01:44:16;100743.88;;;3.42;100.00
2875;BME280;1445;52.600;13.328;2023-04-26T01:46:41;100741.72;;;3.44;100.00
2875;BME280;1445;52.600;13.328;2023-04-26T01:49:06;100740.03;;;3.38;100.00
2875;BME280;1445;52.600;13.328;2023-04-26T01:51:32;100745.41;;;3.32;100.00
2875;BME280;1445;52.600;13.328;2023-04-26T01:53:58;100749.53;;;3.35;100.00
2875;BME280;1445;52.600;13.328;2023-04-26T01:56:24;100743.75;;;3.31;100.00
2875;BME280;1445;52.600;13.328;2023-04-26T01:58:49;100747.56;;;3.30;100.00
2875;BME280;1445;52.600;13.328;2023-04-26T02:01:15;100745.34;;;3.27;100.00
2875;BME280;1445;52.600;13.328;2023-04-26T02:03:40;100757.88;;;3.28;100.00
2875;BME280;1445;52.600;13.328;2023-04-26T02:06:05;100746.16;;;3.28;100.00
2875;BME280;1445;52.600;13.328;2023-04-26T02:08:31;100750.78;;;3.27;100.00
2875;BME280;1445;52.600;13.328;2023-04-26T02:10:57;100762.75;;;3.26;100.00
2875;BME280;1445;52.600;13.328;2023-04-26T02:13:22;100754.25;;;3.23;100.00
2875;BME280;1445;52.600;13.328;2023-04-26T02:15:49;100753.19;;;3.24;100.00
2875;BME280;1445;52.600;13.328;2023-04-26T02:18:15;100749.88;;;3.22;100.00
2875;BME280;1445;52.600;13.328;2023-04-26T02:20:42;100746.84;;;3.18;100.00
2875;BME280;1445;52.600;13.328;2023-04-26T02:23:11;100762.09;;;3.19;100.00
2875;BME280;1445;52.600;13.328;2023-04-26T02:25:37;100756.59;;;3.14;100.00
2875;BME280;1445;52.600;13.328;2023-04-26T02:28:04;100753.28;;;3.12;100.00
2875;BME280;1445;52.600;13.328;2023-04-26T02:30:29;100756.34;;;3.16;100.00
2875;BME280;1445;52.600;13.328;2023-04-26T02:32:55;100754.38;;;3.11;100.00
2875;BME280;1445;52.600;13.328;2023-04-26T02:35:22;100759.59;;;3.13;100.00
2875;BME280;1445;52.600;13.328;2023-04-26T02:37:47;100747.84;;;3.12;100.00
2875;BME280;1445;52.600;13.328;2023-04-26T02:40:17;100752.75;;;3.10;100.00
2875;BME280;1445;52.600;13.328;2023-04-26T02:42:43;100756.03;;;3.12;100.00
2875;BME280;1445;52.600;13.328;2023-04-26T02:45:08;100756.56;;;3.09;100.00
2875;BME280;1445;52.600;13.328;2023-04-26T02:47:34;100752.91;;;3.03;100.00
2875;BME280;1445;52.600;13.328;2023-04-26T02:50:04;100757.06;;;3.06;100.00
2875;BME280;1445;52.600;13.328;2023-04-26T02:52:29;100755.31;;;3.00;100.00
2875;BME280;1445;52.600;13.328;2023-04-26T02:54:55;100748.78;;;3.01;100.00
2875;BME280;1445;52.600;13.328;2023-04-26T02:57:20;100759.84;;;2.94;100.00
2875;BME280;1445;52.600;13.328;2023-04-26T02:59:46;100757.97;;;2.95;100.00
2875;BME280;1445;52.600;13.328;2023-04-26T03:02:11;100758.53;;;2.97;100.00
2875;BME280;1445;52.600;13.328;2023-04-26T03:04:37;100755.22;;;2.95;100.00
2875;BME280;1445;52.600;13.328;2023-04-26T03:07:04;100766.44;;;2.98;100.00
2875;BME280;1445;52.600;13.328;2023-04-26T03:09:29;100755.50;;;2.93;100.00
2875;BME280;1445;52.600;13.328;2023-04-26T03:11:55;100758.03;;;3.00;100.00
2875;BME280;1445;52.600;13.328;2023-04-26T03:14:21;100758.22;;;2.93;100.00
2875;BME280;1445;52.600;13.328;2023-04-26T03:16:46;100749.72;;;2.90;100.00
2875;BME280;1445;52.600;13.328;2023-04-26T03:19:13;100759.81;;;2.89;100.00
2875;BME280;1445;52.600;13.328;2023-04-26T03:21:38;100754.59;;;2.87;100.00
2875;BME280;1445;52.600;13.328;2023-04-26T03:24:04;100758.88;;;2.83;100.00
2875;BME280;1445;52.600;13.328;2023-04-26T03:26:30;100757.00;;;2.84;100.00
2875;BME280;1445;52.600;13.328;2023-04-26T03:28:55;100769.53;;;2.85;100.00
2875;BME280;1445;52.600;13.328;2023-04-26T03:31:20;100771.34;;;2.79;100.00
2875;BME280;1445;52.600;13.328;2023-04-26T03:33:47;100768.63;;;2.79;100.00
2875;BME280;1445;52.600;13.328;2023-04-26T03:36:12;100776.56;;;2.81;100.00
2875;BME280;1445;52.600;13.328;2023-04-26T03:38:37;100791.22;;;2.80;100.00
2875;BME280;1445;52.600;13.328;2023-04-26T03:41:03;100783.88;;;2.80;100.00
2875;BME280;1445;52.600;13.328;2023-04-26T03:43:29;100779.78;;;2.78;100.00
2875;BME280;1445;52.600;13.328;2023-04-26T03:45:54;100780.59;;;2.78;100.00
2875;BME280;1445;52.600;13.328;2023-04-26T03:48:20;100776.81;;;2.79;100.00
2875;BME280;1445;52.600;13.328;2023-04-26T03:50:45;100781.09;;;2.75;100.00
2875;BME280;1445;52.600;13.328;2023-04-26T03:53:11;100787.94;;;2.78;100.00
2875;BME280;1445;52.600;13.328;2023-04-26T03:55:36;100783.88;;;2.80;100.00
2875;BME280;1445;52.600;13.328;2023-04-26T03:58:02;100788.19;;;2.76;100.00
2875;BME280;1445;52.600;13.328;2023-04-26T04:00:38;100790.34;;;2.74;100.00
2875;BME280;1445;52.600;13.328;2023-04-26T04:03:04;100784.56;;;2.71;100.00
2875;BME280;1445;52.600;13.328;2023-04-26T04:05:30;100782.09;;;2.69;100.00
2875;BME280;1445;52.600;13.328;2023-04-26T04:07:56;100792.47;;;2.72;100.00
2875;BME280;1445;52.600;13.328;2023-04-26T04:10:22;100798.41;;;2.69;100.00
2875;BME280;1445;52.600;13.328;2023-04-26T04:12:48;100800.06;;;2.70;100.00
2875;BME280;1445;52.600;13.328;2023-04-26T04:15:15;100804.13;;;2.68;100.00
2875;BME280;1445;52.600;13.328;2023-04-26T04:17:40;100801.13;;;2.69;100.00
2875;BME280;1445;52.600;13.328;2023-04-26T04:20:06;100794.13;;;2.73;100.00
2875;BME280;1445;52.600;13.328;2023-04-26T04:22:32;100798.25;;;2.76;100.00
2875;BME280;1445;52.600;13.328;2023-04-26T04:24:57;100793.31;;;2.73;100.00
2875;BME280;1445;52.600;13.328;2023-04-26T04:27:25;100798.50;;;2.74;100.00
2875;BME280;1445;52.600;13.328;2023-04-26T04:29:50;100798.84;;;2.78;100.00
2875;BME280;1445;52.600;13.328;2023-04-26T04:32:15;100809.97;;;2.76;100.00
2875;BME280;1445;52.600;13.328;2023-04-26T04:34:41;100819.03;;;2.82;100.00
2875;BME280;1445;52.600;13.328;2023-04-26T04:37:07;100810.63;;;2.83;100.00
2875;BME280;1445;52.600;13.328;2023-04-26T04:39:33;100810.13;;;2.86;100.00
2875;BME280;1445;52.600;13.328;2023-04-26T04:41:59;100806.56;;;2.86;100.00
2875;BME280;1445;52.600;13.328;2023-04-26T04:44:24;100805.00;;;2.90;100.00
2875;BME280;1445;52.600;13.328;2023-04-26T04:46:51;100813.50;;;2.94;100.00
2875;BME280;1445;52.600;13.328;2023-04-26T04:49:17;100813.00;;;2.97;100.00
2875;BME280;1445;52.600;13.328;2023-04-26T04:51:43;100823.41;;;3.00;100.00
2875;BME280;1445;52.600;13.328;2023-04-26T04:56:36;100816.38;;;3.04;100.00
2875;BME280;1445;52.600;13.328;2023-04-26T04:59:01;100818.34;;;3.08;100.00
2875;BME280;1445;52.600;13.328;2023-04-26T05:01:26;100813.97;;;3.07;100.00
2875;BME280;1445;52.600;13.328;2023-04-26T05:03:52;100816.25;;;3.16;100.00
2875;BME280;1445;52.600;13.328;2023-04-26T05:06:17;100829.56;;;3.12;100.00
2875;BME280;1445;52.600;13.328;2023-04-26T05:08:42;100825.78;;;3.13;100.00
2875;BME280;1445;52.600;13.328;2023-04-26T05:11:08;100840.06;;;3.20;100.00
2875;BME280;1445;52.600;13.328;2023-04-26T05:13:33;100829.81;;;3.27;100.00
2875;BME280;1445;52.600;13.328;2023-04-26T05:15:59;100834.75;;;3.30;100.00
2875;BME280;1445;52.600;13.328;2023-04-26T05:18:24;100833.91;;;3.30;100.00
2875;BME280;1445;52.600;13.328;2023-04-26T05:20:50;100853.69;;;3.42;100.00
2875;BME280;1445;52.600;13.328;2023-04-26T05:23:15;100845.78;;;3.41;100.00
2875;BME280;1445;52.600;13.328;2023-04-26T05:25:40;100823.78;;;3.47;100.00
2875;BME280;1445;52.600;13.328;2023-04-26T05:28:06;100836.34;;;3.48;100.00
2875;BME280;1445;52.600;13.328;2023-04-26T05:30:37;100844.59;;;3.53;100.00
2875;BME280;1445;52.600;13.328;2023-04-26T05:33:02;100841.75;;;3.65;100.00
2875;BME280;1445;52.600;13.328;2023-04-26T05:35:27;100847.22;;;3.65;100.00
2875;BME280;1445;52.600;13.328;2023-04-26T05:37:53;100839.13;;;3.75;100.00
2875;BME280;1445;52.600;13.328;2023-04-26T05:40:18;100842.50;;;3.82;100.00
2875;BME280;1445;52.600;13.328;2023-04-26T05:42:44;100844.72;;;3.86;100.00
2875;BME280;1445;52.600;13.328;2023-04-26T05:45:09;100849.22;;;3.97;100.00
2875;BME280;1445;52.600;13.328;2023-04-26T05:47:35;100864.44;;;3.93;100.00
2875;BME280;1445;52.600;13.328;2023-04-26T05:50:00;100846.34;;;4.09;100.00
2875;BME280;1445;52.600;13.328;2023-04-26T05:52:26;100846.88;;;4.05;100.00
2875;BME280;1445;52.600;13.328;2023-04-26T05:54:52;100856.81;;;4.17;100.00
2875;BME280;1445;52.600;13.328;2023-04-26T05:57:18;100847.03;;;4.21;100.00
2875;BME280;1445;52.600;13.328;2023-04-26T05:59:43;100846.31;;;4.30;100.00
2875;BME280;1445;52.600;13.328;2023-04-26T06:02:09;100844.19;;;4.38;100.00
2875;BME280;1445;52.600;13.328;2023-04-26T06:04:34;100850.47;;;4.38;100.00
2875;BME280;1445;52.600;13.328;2023-04-26T06:06:59;100848.13;;;4.47;100.00
2875;BME280;1445;52.600;13.328;2023-04-26T06:09:25;100854.09;;;4.44;100.00
2875;BME280;1445;52.600;13.328;2023-04-26T06:11:51;100847.59;;;4.50;100.00
2875;BME280;1445;52.600;13.328;2023-04-26T06:14:16;100846.63;;;4.66;100.00
2875;BME280;1445;52.600;13.328;2023-04-26T06:16:42;100852.97;;;4.72;100.00
2875;BME280;1445;52.600;13.328;2023-04-26T06:19:07;100860.38;;;4.76;100.00
2875;BME280;1445;52.600;13.328;2023-04-26T06:21:32;100851.56;;;4.64;100.00
2875;BME280;1445;52.600;13.328;2023-04-26T06:23:58;100853.19;;;4.65;100.00
2875;BME280;1445;52.600;13.328;2023-04-26T06:26:23;100857.34;;;4.73;100.00
2875;BME280;1445;52.600;13.328;2023-04-26T06:28:48;100841.84;;;4.78;100.00
2875;BME280;1445;52.600;13.328;2023-04-26T06:31:14;100860.16;;;4.83;100.00
2875;BME280;1445;52.600;13.328;2023-04-26T06:33:39;100850.03;;;4.78;100.00
2875;BME280;1445;52.600;13.328;2023-04-26T06:36:05;100863.28;;;4.97;100.00
2875;BME280;1445;52.600;13.328;2023-04-26T06:38:31;100858.44;;;5.04;100.00
2875;BME280;1445;52.600;13.328;2023-04-26T06:40:56;100855.69;;;5.04;100.00
2875;BME280;1445;52.600;13.328;2023-04-26T06:43:22;100860.13;;;5.10;100.00
2875;BME280;1445;52.600;13.328;2023-04-26T06:45:48;100851.09;;;5.10;100.00
2875;BME280;1445;52.600;13.328;2023-04-26T06:48:13;100847.56;;;5.09;100.00
2875;BME280;1445;52.600;13.328;2023-04-26T06:50:39;100857.25;;;5.32;100.00
2875;BME280;1445;52.600;13.328;2023-04-26T06:53:04;100862.25;;;5.45;100.00
2875;BME280;1445;52.600;13.328;2023-04-26T06:55:30;100868.28;;;5.47;100.00
2875;BME280;1445;52.600;13.328;2023-04-26T06:57:55;100855.84;;;5.30;100.00
2875;BME280;1445;52.600;13.328;2023-04-26T07:00:21;100858.06;;;5.33;100.00
2875;BME280;1445;52.600;13.328;2023-04-26T07:02:46;100843.28;;;5.29;100.00
2875;BME280;1445;52.600;13.328;2023-04-26T07:05:12;100843.34;;;5.34;100.00
2875;BME280;1445;52.600;13.328;2023-04-26T07:07:39;100857.31;;;5.42;100.00
2875;BME280;1445;52.600;13.328;2023-04-26T07:10:05;100858.53;;;5.67;100.00
2875;BME280;1445;52.600;13.328;2023-04-26T07:12:31;100854.03;;;5.93;100.00
2875;BME280;1445;52.600;13.328;2023-04-26T07:14:56;100851.31;;;5.98;100.00
2875;BME280;1445;52.600;13.328;2023-04-26T07:17:22;100876.34;;;5.74;100.00
2875;BME280;1445;52.600;13.328;2023-04-26T07:19:47;100865.44;;;5.80;100.00
2875;BME280;1445;52.600;13.328;2023-04-26T07:22:12;100865.53;;;6.00;100.00
2875;BME280;1445;52.600;13.328;2023-04-26T07:24:38;100874.03;;;6.04;100.00
2875;BME280;1445;52.600;13.328;2023-04-26T07:27:03;100854.03;;;5.93;100.00
2875;BME280;1445;52.600;13.328;2023-04-26T07:29:28;100876.03;;;6.18;100.00
2875;BME280;1445;52.600;13.328;2023-04-26T07:31:54;100861.84;;;6.37;100.00
2875;BME280;1445;52.600;13.328;2023-04-26T07:34:21;100853.91;;;6.56;100.00
2875;BME280;1445;52.600;13.328;2023-04-26T07:36:46;100870.94;;;6.68;100.00
2875;BME280;1445;52.600;13.328;2023-04-26T07:39:12;100858.56;;;6.40;100.00
2875;BME280;1445;52.600;13.328;2023-04-26T07:41:39;100850.38;;;6.60;100.00
2875;BME280;1445;52.600;13.328;2023-04-26T07:44:05;100861.88;;;7.03;100.00
2875;BME280;1445;52.600;13.328;2023-04-26T07:46:32;100853.66;;;7.03;100.00
2875;BME280;1445;52.600;13.328;2023-04-26T07:48:58;100869.00;;;7.20;100.00
2875;BME280;1445;52.600;13.328;2023-04-26T07:51:23;100856.97;;;6.85;100.00
2875;BME280;1445;52.600;13.328;2023-04-26T07:53:48;100860.22;;;7.23;100.00
2875;BME280;1445;52.600;13.328;2023-04-26T07:56:14;100853.91;;;7.37;100.00
2875;BME280;1445;52.600;13.328;2023-04-26T07:58:40;100856.38;;;7.18;100.00
2875;BME280;1445;52.600;13.328;2023-04-26T08:01:06;100844.88;;;7.22;100.00
2875;BME280;1445;52.600;13.328;2023-04-26T08:03:31;100865.72;;;7.07;100.00
2875;BME280;1445;52.600;13.328;2023-04-26T08:05:57;100866.28;;;6.79;100.00
2875;BME280;1445;52.600;13.328;2023-04-26T08:08:26;100871.19;;;7.07;100.00
2875;BME280;1445;52.600;13.328;2023-04-26T08:10:52;100877.25;;;7.20;100.00
2875;BME280;1445;52.600;13.328;2023-04-26T08:13:18;100867.06;;;7.15;100.00
2875;BME280;1445;52.600;13.328;2023-04-26T08:15:43;100857.22;;;7.24;100.00
2875;BME280;1445;52.600;13.328;2023-04-26T08:18:09;100867.63;;;7.27;100.00
2875;BME280;1445;52.600;13.328;2023-04-26T08:20:34;100862.94;;;7.23;100.00
2875;BME280;1445;52.600;13.328;2023-04-26T08:23:00;100879.13;;;7.24;100.00
2875;BME280;1445;52.600;13.328;2023-04-26T08:25:25;100867.06;;;7.30;100.00
2875;BME280;1445;52.600;13.328;2023-04-26T08:27:51;100864.84;;;7.43;100.00
2875;BME280;1445;52.600;13.328;2023-04-26T08:30:17;100873.88;;;7.43;100.00
2875;BME280;1445;52.600;13.328;2023-04-26T08:32:43;100865.06;;;7.67;100.00
2875;BME280;1445;52.600;13.328;2023-04-26T08:35:10;100868.84;;;7.81;100.00
2875;BME280;1445;52.600;13.328;2023-04-26T08:37:35;100877.69;;;7.57;100.00
2875;BME280;1445;52.600;13.328;2023-04-26T08:40:03;100895.31;;;7.31;100.00
2875;BME280;1445;52.600;13.328;2023-04-26T08:42:29;100887.94;;;7.16;100.00
2875;BME280;1445;52.600;13.328;2023-04-26T08:44:59;100897.50;;;7.39;100.00
2875;BME280;1445;52.600;13.328;2023-04-26T08:47:52;100870.06;;;7.29;100.00
2875;BME280;1445;52.600;13.328;2023-04-26T08:50:19;100867.81;;;7.61;100.00
2875;BME280;1445;52.600;13.328;2023-04-26T08:52:47;100889.47;;;7.58;100.00
2875;BME280;1445;52.600;13.328;2023-04-26T08:55:15;100877.16;;;7.50;100.00
2875;BME280;1445;52.600;13.328;2023-04-26T08:57:45;100874.97;;;7.52;100.00
2875;BME280;1445;52.600;13.328;2023-04-26T09:00:12;100871.69;;;7.40;100.00
2875;BME280;1445;52.600;13.328;2023-04-26T09:02:45;100892.56;;;7.31;100.00
2875;BME280;1445;52.600;13.328;2023-04-26T09:05:11;100890.41;;;7.02;100.00
2875;BME280;1445;52.600;13.328;2023-04-26T09:07:40;100893.69;;;6.99;100.00
2875;BME280;1445;52.600;13.328;2023-04-26T09:10:06;100883.28;;;7.16;100.00
2875;BME280;1445;52.600;13.328;2023-04-26T09:12:33;100892.56;;;7.41;100.00
2875;BME280;1445;52.600;13.328;2023-04-26T09:14:59;100887.59;;;7.48;100.00
2875;BME280;1445;52.600;13.328;2023-04-26T09:19:51;100890.91;;;7.45;100.00
2875;BME280;1445;52.600;13.328;2023-04-26T09:22:35;100889.25;;;7.39;100.00
2875;BME280;1445;52.600;13.328;2023-04-26T09:25:02;100879.38;;;7.33;100.00
2875;BME280;1445;52.600;13.328;2023-04-26T09:27:41;100911.22;;;6.98;100.00
2875;BME280;1445;52.600;13.328;2023-04-26T09:30:14;100892.84;;;6.73;100.00
2875;BME280;1445;52.600;13.328;2023-04-26T09:32:47;100890.09;;;6.83;100.00
2875;BME280;1445;52.600;13.328;2023-04-26T09:35:36;100898.91;;;6.96;100.00
2875;BME280;1445;52.600;13.328;2023-04-26T09:38:10;100898.31;;;7.19;100.00
2875;BME280;1445;52.600;13.328;2023-04-26T09:43:15;100873.59;;;8.25;100.00
2875;BME280;1445;52.600;13.328;2023-04-26T09:45:46;100875.63;;;9.27;100.00
2875;BME280;1445;52.600;13.328;2023-04-26T09:48:35;100872.69;;;9.18;100.00
2875;BME280;1445;52.600;13.328;2023-04-26T09:53:31;100891.16;;;8.39;100.00
2875;BME280;1445;52.600;13.328;2023-04-26T09:56:18;100888.50;;;8.08;100.00
2875;BME280;1445;52.600;13.328;2023-04-26T10:01:18;100875.69;;;8.53;100.00
2875;BME280;1445;52.600;13.328;2023-04-26T10:03:44;100889.03;;;9.04;100.00
2875;BME280;1445;52.600;13.328;2023-04-26T10:06:11;100873.72;;;9.27;100.00
2875;BME280;1445;52.600;13.328;2023-04-26T10:08:37;100876.72;;;9.26;100.00
2875;BME280;1445;52.600;13.328;2023-04-26T10:11:03;100865.16;;;9.00;100.00
2875;BME280;1445;52.600;13.328;2023-04-26T10:13:32;100871.28;;;9.21;100.00
2875;BME280;1445;52.600;13.328;2023-04-26T10:16:02;100873.97;;;9.26;100.00
2875;BME280;1445;52.600;13.328;2023-04-26T10:18:29;100881.66;;;9.00;100.00
2875;BME280;1445;52.600;13.328;2023-04-26T10:20:58;100875.34;;;8.94;100.00
2875;BME280;1445;52.600;13.328;2023-04-26T10:23:25;100886.41;;;8.89;100.00
2875;BME280;1445;52.600;13.328;2023-04-26T10:25:52;100890.94;;;8.70;100.00
2875;BME280;1445;52.600;13.328;2023-04-26T10:31:04;100888.91;;;8.46;100.00
2875;BME280;1445;52.600;13.328;2023-04-26T10:33:31;100887.84;;;8.32;100.00
2875;BME280;1445;52.600;13.328;2023-04-26T10:38:34;100881.94;;;9.56;100.00
2875;BME280;1445;52.600;13.328;2023-04-26T10:41:35;100878.50;;;9.70;100.00
2875;BME280;1445;52.600;13.328;2023-04-26T10:44:36;100875.16;;;9.20;100.00
2875;BME280;1445;52.600;13.328;2023-04-26T10:47:04;100886.56;;;9.37;100.00
2875;BME280;1445;52.600;13.328;2023-04-26T10:49:42;100866.84;;;8.96;100.00
2875;BME280;1445;52.600;13.328;2023-04-26T10:52:11;100882.03;;;9.17;100.00
2875;BME280;1445;52.600;13.328;2023-04-26T10:54:55;100912.84;;;8.80;100.00
2875;BME280;1445;52.600;13.328;2023-04-26T11:00:26;100892.78;;;8.84;100.00
2875;BME280;1445;52.600;13.328;2023-04-26T11:02:56;100889.31;;;9.37;100.00
2875;BME280;1445;52.600;13.328;2023-04-26T11:10:48;100880.97;;;9.42;100.00
2875;BME280;1445;52.600;13.328;2023-04-26T11:13:15;100885.16;;;9.64;100.00
2875;BME280;1445;52.600;13.328;2023-04-26T11:15:41;100927.75;;;9.71;100.00
2875;BME280;1445;52.600;13.328;2023-04-26T11:18:07;100894.03;;;9.31;100.00
2875;BME280;1445;52.600;13.328;2023-04-26T11:20:33;100880.19;;;9.07;100.00
2875;BME280;1445;52.600;13.328;2023-04-26T11:22:59;100883.44;;;9.15;100.00
2875;BME280;1445;52.600;13.328;2023-04-26T11:25:27;100895.22;;;9.20;100.00
2875;BME280;1445;52.600;13.328;2023-04-26T11:28:11;100871.00;;;9.51;100.00
2875;BME280;1445;52.600;13.328;2023-04-26T11:30:36;100884.63;;;9.86;100.00
2875;BME280;1445;52.600;13.328;2023-04-26T11:33:02;100884.16;;;10.26;100.00
2875;BME280;1445;52.600;13.328;2023-04-26T11:35:37;100885.88;;;10.41;100.00
2875;BME280;1445;52.600;13.328;2023-04-26T11:38:04;100897.16;;;10.64;100.00
2875;BME280;1445;52.600;13.328;2023-04-26T11:40:31;100904.22;;;10.51;91.38
2875;BME280;1445;52.600;13.328;2023-04-26T11:43:01;100895.56;;;10.95;87.66
2875;BME280;1445;52.600;13.328;2023-04-26T11:45:29;100889.06;;;10.86;83.49
2875;BME280;1445;52.600;13.328;2023-04-26T11:47:56;100886.78;;;10.56;84.66
2875;BME280;1445;52.600;13.328;2023-04-26T11:50:23;100885.13;;;10.73;85.22
2875;BME280;1445;52.600;13.328;2023-04-26T11:52:55;100904.22;;;10.89;83.83
2875;BME280;1445;52.600;13.328;2023-04-26T11:55:31;100916.50;;;10.96;81.83
2875;BME280;1445;52.600;13.328;2023-04-26T11:58:11;100884.53;;;10.77;78.05
2875;BME280;1445;52.600;13.328;2023-04-26T12:00:36;100890.16;;;10.71;79.47
2875;BME280;1445;52.600;13.328;2023-04-26T12:03:06;100902.94;;;10.62;85.73
2875;BME280;1445;52.600;13.328;2023-04-26T12:05:35;100918.22;;;10.12;96.19
2875;BME280;1445;52.600;13.328;2023-04-26T12:08:00;100893.84;;;9.76;100.00
2875;BME280;1445;52.600;13.328;2023-04-26T12:10:29;100906.16;;;9.84;100.00
2875;BME280;1445;52.600;13.328;2023-04-26T12:12:57;100906.34;;;10.35;99.12
2875;BME280;1445;52.600;13.328;2023-04-26T12:15:25;100912.81;;;10.49;93.03
2875;BME280;1445;52.600;13.328;2023-04-26T12:20:29;100896.28;;;9.77;100.00
2875;BME280;1445;52.600;13.328;2023-04-26T12:23:02;100902.31;;;10.03;100.00
2875;BME280;1445;52.600;13.328;2023-04-26T12:25:28;100891.97;;;9.95;100.00
2875;BME280;1445;52.600;13.328;2023-04-26T12:27:54;100898.75;;;11.03;100.00
2875;BME280;1445;52.600;13.328;2023-04-26T12:30:20;100887.75;;;11.63;91.99
2875;BME280;1445;52.600;13.328;2023-04-26T12:32:47;100908.06;;;11.39;76.03
2875;BME280;1445;52.600;13.328;2023-04-26T12:35:12;100885.06;;;12.54;75.43
2875;BME280;1445;52.600;13.328;2023-04-26T12:37:38;100918.50;;;11.89;68.34
2875;BME280;1445;52.600;13.328;2023-04-26T12:40:04;100895.38;;;11.99;75.52
2875;BME280;1445;52.600;13.328;2023-04-26T12:42:31;100899.34;;;10.99;72.87
2875;BME280;1445;52.600;13.328;2023-04-26T12:44:56;100931.69;;;10.37;78.93
2875;BME280;1445;52.600;13.328;2023-04-26T12:47:21;100909.13;;;10.11;90.95
2875;BME280;1445;52.600;13.328;2023-04-26T12:49:47;100905.22;;;9.93;96.24
2875;BME280;1445;52.600;13.328;2023-04-26T12:52:12;100909.78;;;10.27;98.45
2875;BME280;1445;52.600;13.328;2023-04-26T12:54:38;100902.31;;;10.03;100.00
2875;BME280;1445;52.600;13.328;2023-04-26T12:57:04;100898.16;;;10.06;100.00
2875;BME280;1445;52.600;13.328;2023-04-26T12:59:30;100898.38;;;10.10;100.00
2875;BME280;1445;52.600;13.328;2023-04-26T13:01:56;100902.03;;;10.05;96.79
2875;BME280;1445;52.600;13.328;2023-04-26T13:04:21;100899.06;;;10.25;83.93
2875;BME280;1445;52.600;13.328;2023-04-26T13:06:47;100906.44;;;11.06;82.96
2875;BME280;1445;52.600;13.328;2023-04-26T13:09:12;100897.84;;;11.40;75.98
2875;BME280;1445;52.600;13.328;2023-04-26T13:11:38;100919.78;;;10.80;72.91
2875;BME280;1445;52.600;13.328;2023-04-26T13:14:05;100900.53;;;10.93;76.23
2875;BME280;1445;52.600;13.328;2023-04-26T13:16:36;100890.72;;;12.35;70.53
2875;BME280;1445;52.600;13.328;2023-04-26T13:19:06;100894.22;;;11.86;68.69
2875;BME280;1445;52.600;13.328;2023-04-26T13:21:31;100902.13;;;10.81;77.48
2875;BME280;1445;52.600;13.328;2023-04-26T13:23:57;100903.72;;;10.25;84.03
2875;BME280;1445;52.600;13.328;2023-04-26T13:26:22;100904.59;;;9.96;89.49
2875;BME280;1445;52.600;13.328;2023-04-26T13:28:48;100915.09;;;9.94;94.15